createdAt,value
2018-07-23T06:02:06.467Z,23.41
2018-07-23T06:03:33.360Z,23.64
2018-07-23T06:05:01.410Z,23.84
2018-07-23T06:06:27.511Z,24.00
2018-07-23T06:07:54.874Z,24.03
2018-07-23T06:09:22.178Z,23.96
2018-07-23T06:10:50.549Z,23.87
2018-07-23T06:12:16.773Z,23.94
2018-07-23T06:13:45.044Z,23.81
2018-07-23T06:15:12.525Z,23.79
2018-07-23T06:16:38.789Z,23.78
2018-07-23T06:18:07.017Z,23.78
2018-07-23T06:19:33.253Z,23.78
2018-07-23T06:21:00.358Z,23.77
2018-07-23T06:22:28.709Z,23.81
2018-07-23T06:23:56.352Z,23.63
2018-07-23T06:25:22.201Z,23.45
2018-07-23T06:26:50.751Z,23.45
2018-07-23T06:28:17.322Z,23.21
2018-07-23T06:29:44.513Z,23.13
2018-07-23T06:40:24.123Z,23.14
2018-07-23T06:41:51.958Z,23.13
2018-07-23T06:44:15.911Z,23.25
2018-07-23T06:45:43.650Z,23.29
2018-07-23T06:47:28.935Z,23.31
2018-07-23T06:49:45.398Z,23.44
2018-07-23T06:51:10.938Z,23.55
2018-07-23T06:52:38.135Z,23.64
2018-07-23T06:54:05.710Z,23.61
2018-07-23T06:55:33.051Z,23.53
2018-07-23T06:57:00.479Z,23.58
2018-07-23T06:58:27.961Z,23.64
2018-07-23T06:59:55.450Z,23.70
2018-07-23T07:01:23.076Z,23.84
2018-07-23T07:02:50.216Z,24.01
2018-07-23T07:04:18.556Z,24.09
2018-07-23T07:05:44.830Z,24.08
2018-07-23T07:07:12.501Z,23.99
2018-07-23T07:08:39.282Z,23.85
2018-07-23T07:10:06.668Z,23.62
2018-07-23T07:11:33.916Z,23.42
2018-07-23T07:13:01.807Z,23.26
2018-07-23T07:14:28.109Z,23.06
2018-07-23T07:15:55.309Z,22.97
2018-07-23T07:17:23.960Z,22.97
2018-07-23T07:18:50.597Z,23.06
2018-07-23T07:20:18.069Z,23.11
2018-07-23T07:21:46.692Z,23.28
2018-07-23T07:23:12.811Z,23.41
2018-07-23T07:24:40.016Z,23.45
2018-07-23T07:26:07.394Z,23.43
2018-07-23T07:27:35.934Z,23.41
2018-07-23T07:29:03.420Z,23.30
2018-07-23T07:30:29.739Z,23.18
2018-07-23T07:31:57.297Z,23.08
2018-07-23T07:33:24.692Z,23.12
2018-07-23T07:34:51.621Z,23.15
2018-07-23T07:36:18.982Z,23.22
2018-07-23T07:37:47.191Z,23.32
2018-07-23T07:39:13.744Z,23.42
2018-07-23T07:40:41.355Z,23.53
2018-07-23T07:42:09.921Z,23.65
2018-07-23T07:43:37.046Z,23.76
2018-07-23T07:45:03.319Z,23.83
2018-07-23T07:46:30.810Z,23.89
2018-07-23T07:47:58.275Z,23.97
2018-07-23T07:49:25.542Z,23.94
2018-07-23T07:50:52.873Z,23.90
2018-07-23T07:52:20.453Z,23.88
2018-07-23T07:53:48.142Z,23.94
2018-07-23T07:55:15.576Z,23.98
2018-07-23T07:56:43.096Z,24.07
2018-07-23T07:58:10.375Z,24.12
2018-07-23T07:59:37.818Z,24.19
2018-07-23T08:01:05.340Z,24.25
2018-07-23T08:02:33.575Z,24.31
2018-07-23T08:04:00.500Z,24.41
2018-07-23T08:05:27.889Z,24.47
2018-07-23T08:06:54.371Z,24.43
2018-07-23T08:08:21.628Z,24.34
2018-07-23T08:09:48.675Z,24.28
2018-07-23T08:11:17.193Z,24.30
2018-07-23T08:12:42.876Z,24.31
2018-07-23T08:14:10.389Z,24.35
2018-07-23T08:15:37.557Z,24.38
2018-07-23T08:17:06.065Z,24.40
2018-07-23T08:18:32.337Z,24.44
2018-07-23T08:19:59.745Z,24.48
2018-07-23T08:21:27.054Z,24.53
2018-07-23T08:22:54.105Z,24.59
2018-07-23T08:24:21.579Z,24.59
2018-07-23T08:25:49.140Z,24.64
2018-07-23T08:27:16.648Z,24.75
2018-07-23T08:28:44.433Z,24.86
2018-07-23T08:30:13.171Z,24.92
2018-07-23T08:31:39.559Z,24.95
2018-07-23T08:33:06.441Z,24.96
2018-07-23T08:34:34.650Z,24.89
2018-07-23T08:36:01.288Z,24.81
2018-07-23T08:37:28.571Z,24.74
2018-07-23T08:38:55.971Z,24.76
2018-07-23T08:40:23.442Z,24.78
2018-07-23T08:41:50.995Z,24.82
2018-07-23T08:43:17.900Z,24.79
2018-07-23T08:44:45.215Z,24.75
2018-07-23T08:46:12.861Z,24.70
2018-07-23T08:47:40.207Z,24.69
2018-07-23T08:49:07.653Z,24.62
2018-07-23T08:50:35.216Z,24.54
2018-07-23T08:52:03.838Z,24.49
2018-07-23T08:53:30.108Z,24.45
2018-07-23T08:54:57.264Z,24.49
2018-07-23T08:56:24.515Z,24.57
2018-07-23T08:57:52.006Z,24.63
2018-07-23T08:59:19.343Z,24.74
2018-07-23T09:00:46.942Z,24.82
2018-07-23T09:02:13.899Z,24.85
2018-07-23T09:03:41.473Z,24.92
2018-07-23T09:05:08.864Z,25.00
2018-07-23T09:06:36.307Z,25.08
2018-07-23T09:08:03.604Z,25.15
2018-07-23T09:09:31.890Z,25.22
2018-07-23T09:10:58.116Z,25.30
2018-07-23T09:12:26.586Z,25.43
2018-07-23T09:13:53.207Z,25.56
2018-07-23T09:15:21.484Z,25.75
2018-07-23T09:16:48.084Z,25.90
2018-07-23T09:18:16.814Z,25.94
2018-07-23T09:19:43.443Z,25.86
2018-07-23T09:21:11.145Z,25.92
2018-07-23T09:22:39.624Z,26.02
2018-07-23T09:24:06.014Z,26.03
2018-07-23T09:25:34.712Z,26.02
2018-07-23T09:27:01.067Z,26.01
2018-07-23T09:28:29.546Z,26.01
2018-07-23T09:29:56.136Z,25.97
2018-07-23T09:31:23.437Z,25.89
2018-07-23T09:32:50.902Z,25.91
2018-07-23T09:34:19.542Z,25.96
2018-07-23T09:35:46.003Z,26.01
2018-07-23T09:37:14.624Z,26.05
2018-07-23T09:38:41.056Z,26.07
2018-07-23T09:40:09.282Z,26.14
2018-07-23T09:41:37.012Z,26.14
2018-07-23T09:43:03.263Z,26.17
2018-07-23T09:44:30.764Z,26.20
2018-07-23T09:45:59.180Z,26.19
2018-07-23T09:47:25.838Z,26.23
2018-07-23T09:48:54.463Z,26.27
2018-07-23T09:50:21.102Z,26.36
2018-07-23T09:51:48.699Z,26.39
2018-07-23T09:53:16.113Z,26.42
2018-07-23T09:54:43.390Z,26.46
2018-07-23T09:56:10.823Z,26.50
2018-07-23T09:57:38.441Z,26.48
2018-07-23T09:59:07.050Z,26.46
2018-07-23T10:00:33.437Z,26.51
2018-07-23T10:02:00.912Z,26.51
2018-07-23T10:03:29.300Z,26.52
2018-07-23T10:04:55.630Z,26.48
2018-07-23T10:06:23.146Z,26.46
2018-07-23T10:07:50.884Z,26.47
2018-07-23T10:09:18.412Z,26.50
2018-07-23T10:10:45.917Z,26.52
2018-07-23T10:12:14.450Z,26.52
2018-07-23T10:13:41.127Z,26.46
2018-07-23T10:15:08.499Z,26.37
2018-07-23T10:16:36.174Z,26.34
2018-07-23T10:18:03.660Z,26.30
2018-07-23T10:19:30.934Z,26.29
2018-07-23T10:20:58.565Z,26.22
2018-07-23T10:22:26.082Z,26.15
2018-07-23T10:23:53.687Z,26.00
2018-07-23T10:25:21.147Z,25.90
2018-07-23T10:26:48.643Z,25.85
2018-07-23T10:28:16.144Z,25.83
2018-07-23T10:29:43.727Z,25.84
2018-07-23T10:31:12.175Z,25.93
2018-07-23T10:32:38.533Z,26.07
2018-07-23T10:34:05.839Z,26.12
2018-07-23T10:35:36.403Z,26.14
2018-07-23T10:37:00.602Z,26.17
2018-07-23T10:38:27.914Z,26.25
2018-07-23T10:39:54.911Z,26.39
2018-07-23T10:41:22.221Z,26.51
2018-07-23T10:42:49.337Z,26.65
2018-07-23T10:44:16.892Z,26.78
2018-07-23T10:45:45.646Z,26.94
2018-07-23T10:47:12.343Z,27.05
2018-07-23T10:48:39.076Z,27.08
2018-07-23T10:50:06.707Z,27.03
2018-07-23T10:51:34.736Z,26.93
2018-07-23T10:53:01.174Z,26.79
2018-07-23T10:54:28.622Z,26.69
2018-07-23T10:55:56.242Z,26.71
2018-07-23T10:57:25.036Z,26.81
2018-07-23T10:58:51.364Z,26.99
2018-07-23T11:00:20.076Z,27.14
2018-07-23T11:01:46.454Z,27.30
2018-07-23T11:03:14.952Z,27.50
2018-07-23T11:04:42.443Z,27.74
2018-07-23T11:06:09.027Z,27.86
2018-07-23T11:07:36.731Z,27.76
2018-07-23T11:09:04.245Z,27.57
2018-07-23T11:10:31.885Z,27.50
2018-07-23T11:11:59.340Z,27.44
2018-07-23T11:13:26.955Z,27.38
2018-07-23T11:14:54.675Z,27.38
2018-07-23T11:16:23.254Z,27.59
2018-07-23T11:17:50.898Z,27.81
2018-07-23T11:19:18.616Z,27.98
2018-07-23T11:20:46.237Z,28.21
2018-07-23T11:22:12.848Z,28.41
2018-07-23T11:23:40.041Z,28.46
2018-07-23T11:25:38.810Z,28.68
2018-07-23T11:26:35.357Z,28.74
2018-07-23T11:28:02.679Z,28.74
2018-07-23T11:29:30.124Z,28.67
2018-07-23T11:30:57.546Z,28.60
2018-07-23T11:32:25.144Z,28.67
2018-07-23T11:33:52.814Z,28.86
2018-07-23T11:35:20.457Z,29.06
2018-07-23T11:36:48.067Z,29.22
2018-07-23T11:38:15.651Z,29.51
2018-07-23T11:39:44.050Z,29.77
2018-07-23T11:41:10.708Z,29.99
2018-07-23T11:42:38.527Z,30.10
2018-07-23T11:44:06.138Z,30.23
2018-07-23T11:45:33.764Z,30.26
2018-07-23T11:47:01.243Z,30.49
2018-07-23T11:48:28.875Z,30.78
2018-07-23T11:49:57.385Z,31.06
2018-07-23T11:51:23.991Z,31.13
2018-07-23T11:52:51.351Z,31.35
2018-07-23T11:54:19.934Z,31.25
2018-07-23T11:55:46.440Z,31.17
2018-07-23T11:57:14.045Z,31.33
2018-07-23T11:58:42.683Z,31.34
2018-07-23T12:00:09.347Z,31.47
2018-07-23T12:01:37.011Z,31.74
2018-07-23T12:03:04.560Z,31.58
2018-07-23T12:04:33.386Z,31.43
2018-07-23T12:05:59.697Z,31.21
2018-07-23T12:07:27.364Z,31.20
2018-07-23T12:08:55.118Z,30.84
2018-07-23T12:10:22.535Z,30.62
2018-07-23T12:11:51.384Z,30.55
2018-07-23T12:13:18.069Z,30.58
2018-07-23T12:14:45.744Z,30.56
2018-07-23T12:16:14.372Z,30.52
2018-07-23T12:17:47.105Z,30.46
2018-07-23T12:19:08.498Z,30.39
2018-07-23T12:20:35.619Z,30.55
2018-07-23T12:22:04.230Z,30.75
2018-07-23T12:23:30.469Z,30.92
2018-07-23T12:24:57.995Z,30.93
2018-07-23T12:26:25.377Z,30.82
2018-07-23T12:27:52.926Z,30.83
2018-07-23T12:29:20.523Z,30.96
2018-07-23T12:30:47.983Z,31.05
2018-07-23T12:32:16.233Z,31.30
2018-07-23T12:33:42.707Z,31.50
2018-07-23T12:35:09.994Z,31.53
2018-07-23T12:36:38.703Z,31.34
2018-07-23T12:38:05.162Z,31.28
2018-07-23T12:39:32.544Z,31.24
2018-07-23T12:40:59.691Z,31.31
2018-07-23T12:42:27.258Z,31.48
2018-07-23T12:43:55.138Z,31.48
2018-07-23T12:45:22.489Z,31.38
2018-07-23T12:46:51.075Z,31.25
2018-07-23T12:48:17.345Z,31.20
2018-07-23T12:49:44.260Z,30.80
2018-07-23T12:51:11.764Z,30.61
2018-07-23T12:52:39.445Z,30.65
2018-07-23T12:54:08.015Z,30.76
2018-07-23T12:55:34.679Z,30.69
2018-07-23T12:57:02.211Z,30.62
2018-07-23T12:58:29.703Z,30.54
2018-07-23T12:59:57.229Z,30.78
2018-07-23T13:01:25.809Z,30.73
2018-07-23T13:02:52.399Z,30.58
2018-07-23T13:04:20.341Z,30.74
2018-07-23T13:05:47.883Z,30.77
2018-07-23T13:07:15.201Z,30.84
2018-07-23T13:08:42.353Z,30.98
2018-07-23T13:10:10.044Z,31.03
2018-07-23T13:11:38.468Z,30.96
2018-07-23T13:13:06.084Z,30.78
2018-07-23T13:14:32.691Z,30.40
2018-07-23T13:16:00.472Z,30.08
2018-07-23T13:17:28.170Z,29.88
2018-07-23T13:18:55.562Z,29.63
2018-07-23T13:20:23.110Z,29.45
2018-07-23T13:21:51.828Z,29.28
2018-07-23T13:23:18.408Z,29.06
2018-07-23T13:24:45.791Z,29.02
2018-07-23T13:26:13.383Z,28.94
2018-07-23T13:27:40.949Z,28.82
2018-07-23T13:29:08.612Z,28.77
2018-07-23T13:30:35.836Z,28.69
2018-07-23T13:32:03.542Z,28.65
2018-07-23T13:33:31.123Z,28.61
2018-07-23T13:34:59.560Z,28.60
2018-07-23T13:36:25.474Z,28.65
2018-07-23T13:37:53.217Z,28.68
2018-07-23T13:39:21.901Z,28.63
2018-07-23T13:40:48.442Z,28.65
2018-07-23T13:42:17.076Z,28.57
2018-07-23T13:43:43.746Z,28.45
2018-07-23T13:45:11.328Z,28.39
2018-07-23T13:46:38.807Z,28.38
2018-07-23T13:48:06.256Z,28.39
2018-07-23T13:49:33.881Z,28.23
2018-07-23T13:51:01.235Z,28.22
2018-07-23T13:52:28.772Z,28.25
2018-07-23T13:53:56.350Z,28.12
2018-07-23T13:55:23.879Z,28.06
2018-07-23T13:56:52.494Z,28.02
2018-07-23T13:58:19.231Z,28.08
2018-07-23T13:59:46.902Z,28.05
2018-07-23T14:01:14.410Z,27.86
2018-07-23T14:02:42.120Z,27.71
2018-07-23T14:04:09.647Z,27.61
2018-07-23T14:05:37.006Z,27.48
2018-07-23T14:07:04.450Z,27.42
2018-07-23T14:08:32.034Z,27.48
2018-07-23T14:09:59.580Z,27.55
2018-07-23T14:11:27.054Z,27.59
2018-07-23T14:12:54.647Z,27.68
2018-07-23T14:14:22.200Z,27.74
2018-07-23T14:15:50.887Z,27.74
2018-07-23T14:17:17.581Z,27.80
2018-07-23T14:18:45.191Z,27.80
2018-07-23T14:20:12.898Z,27.73
2018-07-23T14:21:40.319Z,27.64
2018-07-23T14:23:07.870Z,27.46
2018-07-23T14:24:35.453Z,27.39
2018-07-23T14:26:02.898Z,27.35
2018-07-23T14:27:30.573Z,27.38
2018-07-23T14:28:57.386Z,27.41
2018-07-23T14:30:25.229Z,27.29
2018-07-23T14:31:52.579Z,27.20
2018-07-23T14:33:20.113Z,27.18
2018-07-23T14:34:47.779Z,27.22
2018-07-23T14:36:15.323Z,27.21
2018-07-23T14:37:44.089Z,27.16
2018-07-23T14:39:10.722Z,27.07
2018-07-23T14:40:38.351Z,27.03
2018-07-23T14:42:06.016Z,27.03
2018-07-23T14:43:33.595Z,27.04
2018-07-23T14:45:02.209Z,27.06
2018-07-23T14:46:28.693Z,27.10
2018-07-23T14:47:57.184Z,27.15
2018-07-23T14:49:23.819Z,27.16
2018-07-23T14:50:51.325Z,27.10
2018-07-23T14:52:19.064Z,27.00
2018-07-23T14:53:46.587Z,26.87
2018-07-23T14:55:14.087Z,26.81
2018-07-23T14:56:42.735Z,26.78
2018-07-23T14:58:09.341Z,26.80
2018-07-23T14:59:36.847Z,26.81
2018-07-23T15:01:04.510Z,26.81
2018-07-23T15:02:33.016Z,26.85
2018-07-23T15:03:59.511Z,26.90
2018-07-23T15:05:27.861Z,26.96
2018-07-23T15:06:54.561Z,26.98
2018-07-23T15:08:23.208Z,26.92
2018-07-23T15:09:50.113Z,26.90
2018-07-23T15:11:17.384Z,26.92
2018-07-23T15:12:44.599Z,26.97
2018-07-23T15:14:11.982Z,27.04
2018-07-23T15:15:39.620Z,27.03
2018-07-23T15:17:06.928Z,26.99
2018-07-23T15:18:34.633Z,26.88
2018-07-23T15:20:01.939Z,26.86
2018-07-23T15:21:30.410Z,26.85
2018-07-23T15:22:56.993Z,26.78
2018-07-23T15:24:24.533Z,26.74
2018-07-23T15:25:53.189Z,26.75
2018-07-23T15:27:19.842Z,26.70
2018-07-23T15:28:47.454Z,26.67
2018-07-23T15:30:15.109Z,26.58
2018-07-23T15:31:43.026Z,26.50
2018-07-23T15:33:10.600Z,26.47
2018-07-23T15:34:37.842Z,26.42
2018-07-23T15:36:05.488Z,26.39
2018-07-23T15:37:34.073Z,26.41
2018-07-23T15:39:00.600Z,26.43
2018-07-23T15:40:28.083Z,26.42
2018-07-23T15:41:56.358Z,26.42
2018-07-23T15:43:24.071Z,26.40
2018-07-23T15:44:50.656Z,26.44
2018-07-23T15:46:17.998Z,26.48
2018-07-23T15:47:48.607Z,26.50
2018-07-23T15:49:12.982Z,26.49
2018-07-23T15:50:40.662Z,26.42
2018-07-23T15:52:08.287Z,26.36
2018-07-23T15:53:35.897Z,26.28
2018-07-23T15:55:03.337Z,26.23
2018-07-23T15:56:30.843Z,26.14
2018-07-23T15:57:58.393Z,26.10
2018-07-23T15:59:26.002Z,26.06
2018-07-23T16:00:53.773Z,26.03
2018-07-23T16:02:21.311Z,26.02
2018-07-23T16:03:49.805Z,26.05
2018-07-23T16:05:16.409Z,26.06
2018-07-23T16:06:45.029Z,26.06
2018-07-23T16:08:11.561Z,26.07
2018-07-23T16:09:39.289Z,26.10
2018-07-23T16:11:06.853Z,26.12
2018-07-23T16:12:34.405Z,26.13
2018-07-23T16:14:01.916Z,26.15
2018-07-23T16:15:29.374Z,26.17
2018-07-23T16:16:57.606Z,26.19
2018-07-23T16:18:24.943Z,26.18
2018-07-23T16:19:52.595Z,26.21
2018-07-23T16:21:19.716Z,26.22
2018-07-23T16:22:47.144Z,26.21
2018-07-23T16:24:13.751Z,26.21
2018-07-23T16:25:41.290Z,26.13
2018-07-23T16:27:08.923Z,26.07
2018-07-23T16:28:37.299Z,25.97
2018-07-23T16:30:04.726Z,25.94
2018-07-23T16:31:32.337Z,25.97
2018-07-23T16:32:58.973Z,26.02
2018-07-23T16:34:25.956Z,26.06
2018-07-23T16:35:53.452Z,26.09
2018-07-23T16:37:21.845Z,26.14
2018-07-23T16:38:48.110Z,26.17
2018-07-23T16:40:15.689Z,26.19
2018-07-23T16:41:43.199Z,26.18
2018-07-23T16:43:10.488Z,26.15
2018-07-23T16:44:38.137Z,26.10
2018-07-23T16:46:05.797Z,26.12
2018-07-23T16:47:33.391Z,26.13
2018-07-23T16:49:00.964Z,26.08
2018-07-23T16:50:29.526Z,26.00
2018-07-23T16:51:56.880Z,25.99
2018-07-23T16:53:24.357Z,25.98
2018-07-23T16:54:50.960Z,25.93
2018-07-23T16:56:18.459Z,25.88
2018-07-23T16:57:46.100Z,25.84
2018-07-23T16:59:13.603Z,25.83
2018-07-23T17:00:41.255Z,25.83
2018-07-23T17:02:09.906Z,25.86
2018-07-23T17:03:36.432Z,25.89
2018-07-23T17:05:04.026Z,25.87
2018-07-23T17:06:31.823Z,25.87
2018-07-23T17:07:59.272Z,25.87
2018-07-23T17:09:26.728Z,25.86
2018-07-23T17:10:54.353Z,25.83
2018-07-23T17:12:21.884Z,25.80
2018-07-23T17:13:50.438Z,25.77
2018-07-23T17:15:17.077Z,25.75
2018-07-23T17:16:45.649Z,25.76
2018-07-23T17:18:12.401Z,25.72
2018-07-23T17:19:39.853Z,25.71
2018-07-23T17:21:07.979Z,25.70
2018-07-23T17:22:34.443Z,25.66
2018-07-23T17:24:02.079Z,25.61
2018-07-23T17:25:29.612Z,25.58
2018-07-23T17:26:57.241Z,25.56
2018-07-23T17:28:24.489Z,25.55
2018-07-23T17:29:53.105Z,25.54
2018-07-23T17:31:19.645Z,25.52
2018-07-23T17:32:48.205Z,25.54
2018-07-23T17:34:14.647Z,25.55
2018-07-23T17:35:42.188Z,25.53
2018-07-23T17:37:09.596Z,25.53
2018-07-23T17:38:37.341Z,25.55
2018-07-23T17:40:04.961Z,25.52
2018-07-23T17:41:33.568Z,25.48
2018-07-23T17:42:59.816Z,25.44
2018-07-23T17:44:27.369Z,25.41
2018-07-23T17:45:55.723Z,25.34
2018-07-23T17:47:22.413Z,25.28
2018-07-23T17:48:50.717Z,25.24
2018-07-23T17:50:18.437Z,25.20
2018-07-23T17:51:46.067Z,25.16
2018-07-23T17:53:12.690Z,25.14
2018-07-23T17:54:41.264Z,25.11
2018-07-23T17:56:08.886Z,25.11
2018-07-23T17:57:36.388Z,25.10
2018-07-23T17:59:02.945Z,25.12
2018-07-23T18:00:30.231Z,25.10
2018-07-23T18:01:57.764Z,25.06
2018-07-23T18:03:26.405Z,25.04
2018-07-23T18:04:52.865Z,25.00
2018-07-23T18:06:20.351Z,24.96
2018-07-23T18:07:47.959Z,24.91
2018-07-23T18:09:15.530Z,24.90
2018-07-23T18:10:42.938Z,24.88
2018-07-23T18:12:10.511Z,24.86
2018-07-23T18:13:39.161Z,24.83
2018-07-23T18:15:06.744Z,24.81
2018-07-23T18:16:33.293Z,24.79
2018-07-23T18:18:01.128Z,24.78
2018-07-23T18:19:28.740Z,24.77
2018-07-23T18:20:56.180Z,24.73
2018-07-23T18:22:23.799Z,24.71
2018-07-23T18:23:51.120Z,24.69
2018-07-23T18:25:18.816Z,24.68
2018-07-23T18:26:47.317Z,24.67
2018-07-23T18:28:13.758Z,24.65
2018-07-23T18:29:41.473Z,24.65
2018-07-23T18:31:08.932Z,24.64
2018-07-23T18:32:36.574Z,24.61
2018-07-23T18:34:04.092Z,24.59
2018-07-23T18:35:31.603Z,24.60
2018-07-23T18:36:59.101Z,24.58
2018-07-23T18:38:26.806Z,24.56
2018-07-23T18:39:54.408Z,24.56
2018-07-23T18:41:22.006Z,24.54
2018-07-23T18:42:49.641Z,24.52
2018-07-23T18:44:17.027Z,24.50
2018-07-23T18:45:44.670Z,24.46
2018-07-23T18:47:12.204Z,24.42
2018-07-23T18:48:39.799Z,24.38
2018-07-23T18:50:07.260Z,24.35
2018-07-23T18:51:35.880Z,24.31
2018-07-23T18:53:02.446Z,24.28
2018-07-23T18:54:30.019Z,24.25
2018-07-23T18:55:58.657Z,24.23
2018-07-23T18:57:26.206Z,24.21
2018-07-23T18:58:52.534Z,24.17
2018-07-23T19:00:19.962Z,24.15
2018-07-23T19:01:47.685Z,24.09
2018-07-23T19:03:16.214Z,24.05
2018-07-23T19:04:42.809Z,23.98
2018-07-23T19:06:10.370Z,23.95
2018-07-23T19:07:37.845Z,23.91
2018-07-23T19:09:05.438Z,23.88
2018-07-23T19:10:32.999Z,23.86
2018-07-23T19:12:01.560Z,23.84
2018-07-23T19:13:28.049Z,23.82
2018-07-23T19:14:55.657Z,23.83
2018-07-23T19:16:23.250Z,23.86
2018-07-23T19:17:50.843Z,23.89
2018-07-23T19:19:18.306Z,23.90
2018-07-23T19:20:45.855Z,23.90
2018-07-23T19:22:13.557Z,23.91
2018-07-23T19:23:41.098Z,23.92
2018-07-23T19:25:08.728Z,23.91
2018-07-23T19:26:36.399Z,23.91
2018-07-23T19:28:03.492Z,23.90
2018-07-23T19:29:31.944Z,23.89
2018-07-23T19:30:58.491Z,23.86
2018-07-23T19:32:27.007Z,23.84
2018-07-23T19:33:53.557Z,23.82
2018-07-23T19:35:21.220Z,23.81
2018-07-23T19:36:48.798Z,23.80
2018-07-23T19:38:16.471Z,23.76
2018-07-23T19:39:43.838Z,23.67
2018-07-23T19:41:11.632Z,23.58
2018-07-23T19:42:38.835Z,23.52
2018-07-23T19:44:06.420Z,23.47
2018-07-23T19:45:34.792Z,23.41
2018-07-23T19:47:02.224Z,23.37
2018-07-23T19:48:28.686Z,23.30
2018-07-23T19:49:57.051Z,23.25
2018-07-23T19:51:24.487Z,23.21
2018-07-23T19:52:51.017Z,23.19
2018-07-23T19:54:18.523Z,23.16
2018-07-23T19:55:46.024Z,23.14
2018-07-23T19:57:13.394Z,23.11
2018-07-23T19:58:41.149Z,23.06
2018-07-23T20:00:09.428Z,23.01
2018-07-23T20:01:36.100Z,22.96
2018-07-23T20:03:03.407Z,22.91
2018-07-23T20:04:30.708Z,22.88
2018-07-23T20:05:59.248Z,22.86
2018-07-23T20:07:25.654Z,22.83
2018-07-23T20:08:54.056Z,22.81
2018-07-23T20:10:20.447Z,22.80
2018-07-23T20:11:48.971Z,22.78
2018-07-23T20:13:15.475Z,22.77
2018-07-23T20:14:42.898Z,22.77
2018-07-23T20:16:10.593Z,22.76
2018-07-23T20:17:39.062Z,22.75
2018-07-23T20:19:06.400Z,22.76
2018-07-23T20:20:33.780Z,22.77
2018-07-23T20:22:00.107Z,22.77
2018-07-23T20:23:27.666Z,22.75
2018-07-23T20:24:56.189Z,22.73
2018-07-23T20:26:22.756Z,22.67
2018-07-23T20:27:50.319Z,22.61
2018-07-23T20:29:17.787Z,22.54
2018-07-23T20:30:45.310Z,22.50
2018-07-23T20:32:12.922Z,22.43
2018-07-23T20:33:41.507Z,22.29
2018-07-23T20:35:09.034Z,22.15
2018-07-23T20:36:35.511Z,22.02
2018-07-23T20:38:03.837Z,21.92
2018-07-23T20:39:31.081Z,21.86
2018-07-23T20:40:57.511Z,21.85
2018-07-23T20:42:24.968Z,21.84
2018-07-23T20:43:53.470Z,21.85
2018-07-23T20:45:19.694Z,21.87
2018-07-23T20:46:47.066Z,21.88
2018-07-23T20:48:14.443Z,21.89
2018-07-23T20:49:42.948Z,21.88
2018-07-23T20:51:09.570Z,21.89
2018-07-23T20:52:37.161Z,21.89
2018-07-23T20:54:05.876Z,21.91
2018-07-23T20:55:32.272Z,21.91
2018-07-23T20:56:59.803Z,21.89
2018-07-23T20:58:27.183Z,21.88
2018-07-23T20:59:54.822Z,21.87
2018-07-23T21:01:22.404Z,21.86
2018-07-23T21:02:50.022Z,21.72
2018-07-23T21:04:17.305Z,21.59
2018-07-23T21:05:44.886Z,21.48
2018-07-23T21:07:12.452Z,21.43
2018-07-23T21:08:39.842Z,21.41
2018-07-23T21:10:08.466Z,21.44
2018-07-23T21:11:34.890Z,21.51
2018-07-23T21:13:02.343Z,21.54
2018-07-23T21:14:29.766Z,21.54
2018-07-23T21:15:57.379Z,21.53
2018-07-23T21:17:24.639Z,21.49
2018-07-23T21:18:52.272Z,21.39
2018-07-23T21:20:19.666Z,21.31
2018-07-23T21:21:47.917Z,21.23
2018-07-23T21:23:14.403Z,21.16
2018-07-23T21:24:41.785Z,21.09
2018-07-23T21:26:09.205Z,21.03
2018-07-23T21:27:36.736Z,21.04
2018-07-23T21:29:03.929Z,21.08
2018-07-23T21:30:32.530Z,21.10
2018-07-23T21:32:00.075Z,21.15
2018-07-23T21:33:26.322Z,21.19
2018-07-23T21:34:53.666Z,21.23
2018-07-23T21:36:20.903Z,21.25
2018-07-23T21:37:48.337Z,21.27
2018-07-23T21:39:15.915Z,21.30
2018-07-23T21:40:44.399Z,21.32
2018-07-23T21:42:10.847Z,21.31
2018-07-23T21:43:38.395Z,21.29
2018-07-23T21:45:05.920Z,21.25
2018-07-23T21:46:34.315Z,21.22
2018-07-23T21:48:00.876Z,21.20
2018-07-23T21:49:27.891Z,21.19
2018-07-23T21:50:55.537Z,21.17
2018-07-23T21:52:23.244Z,21.15
2018-07-23T21:53:50.914Z,21.10
2018-07-23T21:55:18.359Z,21.02
2018-07-23T21:59:59.512Z,20.85
2018-07-23T22:01:26.264Z,20.87
2018-07-23T22:02:53.464Z,20.90
2018-07-23T22:04:21.940Z,20.93
2018-07-23T22:05:49.439Z,20.96
2018-07-23T22:07:17.054Z,20.96
2018-07-23T22:08:43.967Z,20.97
2018-07-23T22:10:12.402Z,20.96
2018-07-23T22:11:40.068Z,20.91
2018-07-23T22:13:06.451Z,20.88
2018-07-23T22:14:34.751Z,20.85
2018-07-23T22:16:01.050Z,20.82
2018-07-23T22:17:29.500Z,20.80
2018-07-23T22:18:55.832Z,20.80
2018-07-23T22:20:23.303Z,20.83
2018-07-23T22:21:50.696Z,20.86
2018-07-23T22:23:18.006Z,20.89
2018-07-23T22:24:45.783Z,20.86
2018-07-23T22:26:13.935Z,20.82
2018-07-23T22:27:40.437Z,20.77
2018-07-23T22:29:08.138Z,20.73
2018-07-23T22:30:35.772Z,20.72
2018-07-23T22:32:03.008Z,20.70
2018-07-23T22:33:30.529Z,20.67
2018-07-23T22:34:57.981Z,20.68
2018-07-23T22:36:26.744Z,20.68
2018-07-23T22:37:53.397Z,20.68
2018-07-23T22:39:20.846Z,20.69
2018-07-23T22:40:49.494Z,20.71
2018-07-23T22:42:15.910Z,20.69
2018-07-23T22:43:44.631Z,20.67
2018-07-23T22:45:11.117Z,20.65
2018-07-23T22:46:38.648Z,20.61
2018-07-23T22:48:05.884Z,20.56
2018-07-23T22:49:34.381Z,20.51
2018-07-23T22:51:00.686Z,20.48
2018-07-23T22:52:28.212Z,20.44
2018-07-23T22:57:48.179Z,20.34
2018-07-23T22:59:15.090Z,20.39
2018-07-23T23:00:42.261Z,20.45
2018-07-23T23:02:09.629Z,20.48
2018-07-23T23:03:37.065Z,20.47
2018-07-23T23:05:05.487Z,20.47
2018-07-23T23:06:31.718Z,20.48
2018-07-23T23:08:00.425Z,20.49
2018-07-23T23:09:26.797Z,20.52
2018-07-23T23:10:55.418Z,20.53
2018-07-23T23:12:23.032Z,20.50
2018-07-23T23:13:49.472Z,20.47
2018-07-23T23:15:16.932Z,20.40
2018-07-23T23:16:44.603Z,20.33
2018-07-23T23:18:12.164Z,20.26
2018-07-23T23:59:44.208Z,20.20
